Skip Navigation Links
NOAA logo - Click to go to the NOAA homepage
NOAA's National Weather Service
Alaska Aviation Weather Unit
  NWS logo - Click to go to the NWS homepage
Left Navbar Graphic     23 AKDT = 07 GMT

   
NOAA is celebrating 200 years of science, service, and stewardship. Visit the NOAA 200th celebration Web site to learn more.
USA.gov is the U.S. Government's official Web portal to all Federal, state and local government Web resources and services.
Facebook
NWS on Facebook

Important Change Regarding the AAWU Web Presence

 

Over the last several months, the AAWU has been working to navigate its webpages to a nationally supported server. Security, as well as other needs, have necessitated the change.  In the process, we have made an effort to enhance the functionality of our website, as well as some of our products. As of June 20, 2017, aawu.arh.noaa.gov will be discontinued. The new AAWU web address is weather.gov/aawu. It is now live and will run in-parallel with the old site until it is discontinued. Please send any feedback or questions regarding the new webpages to nws.ar.aawu.webauthors@noaa.gov.  Thank you for your patience during this time of transition.
AAWU Home :: Display TAF Add Bookmark
TAF CYFS 240538Z 2406/2418 VRB03KT P6SM FEW080
    FM241100 33010KT P6SM SCT003 TEMPO 2411/2416 BKN030
    RMK NXT FCST BY 241200Z=

METAR CYFS 240100Z 36004KT 330V040 15SM -SHRA FEW045TCU SCT067 BKN080 18/05 A2956 RMK TCU2AC1AC3 SLP017 DENSITY ALT 1400FT= SPECI CYFS 240135Z 35005KT 330V040 15SM FEW045TCU BKN070 18/04 A2956 RMK TCU2AC3 SLP018 DENSITY ALT 1400FT= METAR CYFS 240200Z 34009KT 15SM FEW045TCU SCT085 19/05 A2956 RMK TCU2AC2 SLP018 DENSITY ALT 1500FT= METAR CYFS 240300Z 36004KT 15SM FEW085 SCT140 17/04 A2957 RMK AC2AC1 SLP019 DENSITY ALT 1200FT= METAR CYFS 240400Z 36004KT 15SM FEW085 SCT140 16/05 A2958 RMK AC1AC3 SLP023 DENSITY ALT 1200FT= METAR CYFS 240500Z 35003KT 14SM SCT140 15/06 A2959 RMK AC3 SLP027 DENSITY ALT 1000FT= METAR CYFS 240600Z 34002KT 15SM SCT140 12/06 A2961 RMK AC3 SLP034 DENSITY ALT 600FT= METAR CYFS 240700Z 00000KT 15SM SCT140 09/05 A2962 RMK AC3 SLP037=
 Alaska TAF Map

NOAA's National Weather Service
Alaska Aviation Weather Unit
6930 Sand Lake Road
Anchorage, AK 99502-1845
Disclaimer
Credits
Glossary
Privacy Policy
About Us
Career Opportunities
Contact AAWU Internet Services Site last modified: April, 17th 2012